Time,TemperatureF,DewpointF,PressureIn,WindDirection,WindDirectionDegrees,WindSpeedMPH,WindSpeedGustMPH,Humidity,HourlyPrecipIn,Conditions,Clouds,dailyrainin,SoftwareType,DateUTC
2013-01-08 00:01:00,42.6,39.0,28.73,SW,225,0.0,0.0,87,0.00,CLR,CLR,0.00,WeatherDisplay:10.37,2013-01-08 06:01:00,
2013-01-08 00:06:00,43.0,39.4,28.73,SW,225,0.0,0.0,87,0.00,CLR,CLR,0.00,WeatherDisplay:10.37,2013-01-08 06:06:00,
2013-01-08 00:11:00,43.3,39.7,28.73,SW,225,0.0,0.0,87,0.00,CLR,CLR,0.00,WeatherDisplay:10.37,2013-01-08 06:11:00,
2013-01-08 00:16:00,43.7,40.1,28.73,SW,225,0.0,0.0,87,0.00,CLR,CLR,0.00,WeatherDisplay:10.37,2013-01-08 06:16:00,
2013-01-08 00:21:00,43.7,40.1,28.73,SW,225,0.0,0.0,87,0.00,CLR,CLR,0.00,WeatherDisplay:10.37,2013-01-08 06:21:00,
2013-01-08 00:26:00,43.9,40.3,28.73,SW,225,0.0,0.0,87,0.00,CLR,CLR,0.00,WeatherDisplay:10.37,2013-01-08 06:26:00,
2013-01-08 00:31:00,44.1,40.4,28.73,SW,225,0.0,0.0,87,0.00,CLR,CLR,0.00,WeatherDisplay:10.37,2013-01-08 06:31:00,
2013-01-08 00:36:00,44.1,40.4,28.73,SW,225,0.0,0.0,87,0.00,CLR,CLR,0.00,WeatherDisplay:10.37,2013-01-08 06:36:00,
2013-01-08 00:41:00,44.1,40.4,28.73,SW,225,0.0,0.0,87,0.00,CLR,CLR,0.00,WeatherDisplay:10.37,2013-01-08 06:41:00,
2013-01-08 00:46:00,44.1,40.4,28.70,SW,225,0.0,0.0,87,0.00,CLR,CLR,0.00,WeatherDisplay:10.37,2013-01-08 06:46:00,
2013-01-08 00:51:00,43.9,40.3,28.70,SW,225,0.0,0.0,87,0.00,CLR,CLR,0.00,WeatherDisplay:10.37,2013-01-08 06:51:00,
2013-01-08 00:56:00,43.9,40.3,28.70,SW,225,0.0,0.0,87,0.00,CLR,CLR,0.00,WeatherDisplay:10.37,2013-01-08 06:56:00,
2013-01-08 01:01:00,43.7,40.1,28.70,SW,225,0.0,0.0,87,0.00,CLR,CLR,0.00,WeatherDisplay:10.37,2013-01-08 07:01:00,
2013-01-08 01:06:00,43.9,40.3,28.70,SW,225,0.0,0.0,87,0.00,CLR,CLR,0.00,WeatherDisplay:10.37,2013-01-08 07:06:00,
2013-01-08 01:11:00,44.1,40.4,28.70,SW,225,0.0,0.0,87,0.00,CLR,CLR,0.00,WeatherDisplay:10.37,2013-01-08 07:11:00,
2013-01-08 01:16:00,44.2,40.9,28.70,SW,225,0.0,0.0,88,0.00,CLR,CLR,0.00,WeatherDisplay:10.37,2013-01-08 07:16:00,
2013-01-08 01:21:00,44.4,41.1,28.70,SW,225,0.0,0.0,88,0.00,CLR,CLR,0.00,WeatherDisplay:10.37,2013-01-08 07:21:00,
2013-01-08 01:26:00,44.4,41.1,28.70,SW,225,0.0,0.0,88,0.00,CLR,CLR,0.00,WeatherDisplay:10.37,2013-01-08 07:26:00,
2013-01-08 01:31:00,44.4,41.1,28.70,SW,225,0.0,0.0,88,0.00,CLR,CLR,0.00,WeatherDisplay:10.37,2013-01-08 07:31:00,
2013-01-08 01:36:00,44.2,40.9,28.70,SW,225,0.0,0.0,88,0.00,CLR,CLR,0.00,WeatherDisplay:10.37,2013-01-08 07:36:00,
2013-01-08 01:41:00,44.2,40.9,28.70,SW,225,0.0,0.0,88,0.00,CLR,CLR,0.00,WeatherDisplay:10.37,2013-01-08 07:41:00,
2013-01-08 01:46:00,44.1,40.7,28.70,SW,225,0.0,0.0,88,0.00,CLR,CLR,0.00,WeatherDisplay:10.37,2013-01-08 07:46:00,
2013-01-08 01:51:00,44.1,40.7,28.70,SW,225,0.0,0.0,88,0.00,CLR,CLR,0.00,WeatherDisplay:10.37,2013-01-08 07:51:00,
2013-01-08 01:56:00,43.9,40.6,28.70,SW,225,0.0,0.0,88,0.00,CLR,CLR,0.00,WeatherDisplay:10.37,2013-01-08 07:56:00,
2013-01-08 02:01:00,43.9,40.6,28.70,SW,225,0.0,0.0,88,0.00,CLR,CLR,0.00,WeatherDisplay:10.37,2013-01-08 08:01:00,
2013-01-08 02:06:00,43.7,40.4,28.70,SW,225,0.0,0.0,88,0.00,CLR,CLR,0.00,WeatherDisplay:10.37,2013-01-08 08:06:00,
2013-01-08 02:11:00,43.9,40.6,28.70,SW,225,0.0,0.0,88,0.00,CLR,CLR,0.00,WeatherDisplay:10.37,2013-01-08 08:11:00,
2013-01-08 02:16:00,43.9,40.6,28.70,SW,225,0.0,0.0,88,0.00,CLR,CLR,0.00,WeatherDisplay:10.37,2013-01-08 08:16:00,
2013-01-08 02:21:00,43.9,40.6,28.70,SW,225,0.0,0.0,88,0.00,CLR,CLR,0.00,WeatherDisplay:10.37,2013-01-08 08:21:00,
2013-01-08 02:26:00,44.1,40.7,28.70,SW,225,0.0,0.0,88,0.00,CLR,CLR,0.00,WeatherDisplay:10.37,2013-01-08 08:26:00,
2013-01-08 02:31:00,44.1,40.7,28.70,SW,225,0.0,0.0,88,0.00,CLR,CLR,0.00,WeatherDisplay:10.37,2013-01-08 08:31:00,
2013-01-08 02:36:00,44.2,40.9,28.70,SW,225,0.0,0.0,88,0.00,CLR,CLR,0.00,WeatherDisplay:10.37,2013-01-08 08:36:00,
2013-01-08 02:41:00,44.1,40.7,28.70,SW,225,0.0,0.0,88,0.00,CLR,CLR,0.00,WeatherDisplay:10.37,2013-01-08 08:41:00,
2013-01-08 02:46:00,44.2,40.9,28.70,SW,225,0.0,0.0,88,0.00,CLR,CLR,0.00,WeatherDisplay:10.37,2013-01-08 08:46:00,
2013-01-08 02:51:00,44.2,40.9,28.70,SW,225,0.0,0.0,88,0.00,CLR,CLR,0.00,WeatherDisplay:10.37,2013-01-08 08:51:00,
2013-01-08 02:56:00,44.8,41.4,28.70,SW,225,0.0,0.0,88,0.00,CLR,CLR,0.00,WeatherDisplay:10.37,2013-01-08 08:56:00,
2013-01-08 03:01:00,45.1,41.8,28.70,SW,225,0.0,0.0,88,0.00,CLR,CLR,0.00,WeatherDisplay:10.37,2013-01-08 09:01:00,
2013-01-08 03:06:00,45.3,42.0,28.70,SW,225,0.0,0.0,88,0.00,CLR,CLR,0.00,WeatherDisplay:10.37,2013-01-08 09:06:00,
2013-01-08 03:11:00,45.3,42.0,28.70,SW,225,0.0,0.0,88,0.00,CLR,CLR,0.00,WeatherDisplay:10.37,2013-01-08 09:11:00,
2013-01-08 03:16:00,45.3,42.0,28.67,SW,225,0.0,0.0,88,0.00,CLR,CLR,0.00,WeatherDisplay:10.37,2013-01-08 09:16:00,
2013-01-08 03:21:00,45.1,41.8,28.67,SW,225,0.0,0.0,88,0.00,CLR,CLR,0.00,WeatherDisplay:10.37,2013-01-08 09:21:00,
2013-01-08 03:26:00,45.1,41.8,28.67,SW,225,0.0,0.0,88,0.00,CLR,CLR,0.00,WeatherDisplay:10.37,2013-01-08 09:26:00,
2013-01-08 03:31:00,44.8,41.4,28.67,SW,225,0.0,0.0,88,0.00,CLR,CLR,0.00,WeatherDisplay:10.37,2013-01-08 09:31:00,
2013-01-08 03:36:00,44.8,41.4,28.67,SW,225,0.0,0.0,88,0.00,CLR,CLR,0.00,WeatherDisplay:10.37,2013-01-08 09:36:00,
2013-01-08 03:41:00,44.8,41.4,28.67,SW,225,0.0,0.0,88,0.00,CLR,CLR,0.00,WeatherDisplay:10.37,2013-01-08 09:41:00,
2013-01-08 03:46:00,44.4,41.4,28.67,SW,225,0.0,0.0,89,0.00,CLR,CLR,0.00,WeatherDisplay:10.37,2013-01-08 09:46:00,
2013-01-08 03:51:00,44.2,41.2,28.67,SW,225,0.0,0.0,89,0.00,CLR,CLR,0.00,WeatherDisplay:10.37,2013-01-08 09:51:00,
2013-01-08 03:56:00,44.1,40.7,28.67,SW,225,0.0,0.0,88,0.00,CLR,CLR,0.00,WeatherDisplay:10.37,2013-01-08 09:56:00,
2013-01-08 04:01:00,44.1,41.0,28.67,SW,225,0.0,0.0,89,0.00,CLR,CLR,0.00,WeatherDisplay:10.37,2013-01-08 10:01:00,
2013-01-08 04:06:00,44.1,41.0,28.67,SW,225,0.0,0.0,89,0.00,CLR,CLR,0.00,WeatherDisplay:10.37,2013-01-08 10:06:00,
2013-01-08 04:11:00,43.9,40.8,28.67,SW,225,0.0,0.0,89,0.00,CLR,CLR,0.00,WeatherDisplay:10.37,2013-01-08 10:11:00,
2013-01-08 04:16:00,43.5,40.2,28.67,SW,225,0.0,0.0,88,0.00,CLR,CLR,0.00,WeatherDisplay:10.37,2013-01-08 10:16:00,
2013-01-08 04:21:00,43.5,40.2,28.67,SW,225,0.0,0.0,88,0.00,CLR,CLR,0.00,WeatherDisplay:10.37,2013-01-08 10:21:00,
2013-01-08 04:26:00,43.5,40.2,28.67,SW,225,0.0,0.0,88,0.00,CLR,CLR,0.00,WeatherDisplay:10.37,2013-01-08 10:26:00,
2013-01-08 04:31:00,43.5,40.2,28.67,SW,225,0.0,0.0,88,0.00,CLR,CLR,0.00,WeatherDisplay:10.37,2013-01-08 10:31:00,
2013-01-08 04:36:00,43.3,40.0,28.67,SW,225,0.0,0.0,88,0.00,CLR,CLR,0.00,WeatherDisplay:10.37,2013-01-08 10:36:00,
2013-01-08 04:41:00,43.3,40.0,28.67,SW,225,0.0,0.0,88,0.00,CLR,CLR,0.00,WeatherDisplay:10.37,2013-01-08 10:41:00,
2013-01-08 04:46:00,43.3,40.0,28.67,SW,225,0.0,0.0,88,0.00,CLR,CLR,0.00,WeatherDisplay:10.37,2013-01-08 10:46:00,
2013-01-08 04:51:00,43.2,39.8,28.67,SW,225,0.0,0.0,88,0.00,CLR,CLR,0.00,WeatherDisplay:10.37,2013-01-08 10:51:00,
2013-01-08 04:56:00,43.0,39.7,28.67,SW,225,0.0,0.0,88,0.00,CLR,CLR,0.00,WeatherDisplay:10.37,2013-01-08 10:56:00,
2013-01-08 05:01:00,43.0,39.7,28.64,SW,225,0.0,0.0,88,0.00,CLR,CLR,0.00,WeatherDisplay:10.37,2013-01-08 11:01:00,
2013-01-08 05:06:00,42.8,39.5,28.64,SW,225,0.0,0.0,88,0.00,CLR,CLR,0.00,WeatherDisplay:10.37,2013-01-08 11:06:00,
2013-01-08 05:11:00,42.8,39.5,28.64,SW,225,0.0,0.0,88,0.00,CLR,CLR,0.00,WeatherDisplay:10.37,2013-01-08 11:11:00,
2013-01-08 05:16:00,43.0,39.7,28.64,SW,225,0.0,0.0,88,0.00,CLR,CLR,0.00,WeatherDisplay:10.37,2013-01-08 11:16:00,
2013-01-08 05:21:00,43.0,39.7,28.64,SW,225,0.0,0.0,88,0.00,CLR,CLR,0.00,WeatherDisplay:10.37,2013-01-08 11:21:00,
2013-01-08 05:26:00,42.8,39.5,28.64,SW,225,0.0,0.0,88,0.00,CLR,CLR,0.00,WeatherDisplay:10.37,2013-01-08 11:26:00,
2013-01-08 05:31:00,42.6,39.6,28.64,SW,225,0.0,0.0,89,0.00,CLR,CLR,0.00,WeatherDisplay:10.37,2013-01-08 11:31:00,
2013-01-08 05:36:00,42.8,39.5,28.64,SW,225,0.0,0.0,88,0.00,CLR,CLR,0.00,WeatherDisplay:10.37,2013-01-08 11:36:00,
2013-01-08 05:41:00,42.8,39.5,28.64,SW,225,0.0,0.0,88,0.00,CLR,CLR,0.00,WeatherDisplay:10.37,2013-01-08 11:41:00,
2013-01-08 05:46:00,42.8,39.5,28.64,SW,225,0.0,0.0,88,0.00,CLR,CLR,0.00,WeatherDisplay:10.37,2013-01-08 11:46:00,
2013-01-08 05:51:00,42.6,39.6,28.64,SW,225,0.0,0.0,89,0.00,CLR,CLR,0.00,WeatherDisplay:10.37,2013-01-08 11:51:00,
2013-01-08 05:56:00,42.6,39.6,28.64,SW,225,0.0,0.0,89,0.00,CLR,CLR,0.00,WeatherDisplay:10.37,2013-01-08 11:56:00,
2013-01-08 06:01:00,42.4,39.4,28.64,SW,225,0.0,0.0,89,0.00,CLR,CLR,0.00,WeatherDisplay:10.37,2013-01-08 12:01:00,
2013-01-08 06:06:00,42.3,39.0,28.64,SW,225,0.0,0.0,88,0.00,CLR,CLR,0.00,WeatherDisplay:10.37,2013-01-08 12:06:00,
2013-01-08 06:11:00,42.4,39.1,28.64,SW,225,0.0,0.0,88,0.00,CLR,CLR,0.00,WeatherDisplay:10.37,2013-01-08 12:11:00,
2013-01-08 06:16:00,42.6,39.3,28.64,SW,225,0.0,0.0,88,0.00,CLR,CLR,0.00,WeatherDisplay:10.37,2013-01-08 12:16:00,
2013-01-08 06:21:00,42.6,39.3,28.64,SW,225,0.0,0.0,88,0.00,CLR,CLR,0.00,WeatherDisplay:10.37,2013-01-08 12:21:00,
2013-01-08 06:26:00,42.8,39.5,28.64,SW,225,0.0,0.0,88,0.00,CLR,CLR,0.00,WeatherDisplay:10.37,2013-01-08 12:26:00,
2013-01-08 06:31:00,42.8,39.5,28.64,SW,225,0.0,0.0,88,0.00,CLR,CLR,0.00,WeatherDisplay:10.37,2013-01-08 12:31:00,
2013-01-08 06:36:00,42.8,39.5,28.64,SW,225,0.0,0.0,88,0.00,CLR,CLR,0.00,WeatherDisplay:10.37,2013-01-08 12:36:00,
2013-01-08 06:41:00,42.8,39.5,28.64,SW,225,0.0,0.0,88,0.00,CLR,CLR,0.00,WeatherDisplay:10.37,2013-01-08 12:41:00,
2013-01-08 06:46:00,43.5,40.2,28.64,SW,225,0.0,0.0,88,0.00,CLR,CLR,0.00,WeatherDisplay:10.37,2013-01-08 12:46:00,
2013-01-08 06:51:00,43.9,40.6,28.64,SW,225,0.0,0.0,88,0.00,CLR,CLR,0.00,WeatherDisplay:10.37,2013-01-08 12:51:00,
2013-01-08 06:56:00,44.1,40.7,28.64,SW,225,0.0,0.0,88,0.00,CLR,CLR,0.00,WeatherDisplay:10.37,2013-01-08 12:56:00,
2013-01-08 07:01:00,43.9,40.6,28.67,SW,225,0.0,0.0,88,0.00,CLR,CLR,0.00,WeatherDisplay:10.37,2013-01-08 13:01:00,
2013-01-08 07:06:00,44.2,40.9,28.67,SW,225,0.0,0.0,88,0.00,CLR,CLR,0.00,WeatherDisplay:10.37,2013-01-08 13:06:00,
2013-01-08 07:11:00,44.2,40.9,28.67,SW,225,0.0,0.0,88,0.00,CLR,CLR,0.00,WeatherDisplay:10.37,2013-01-08 13:11:00,
2013-01-08 07:16:00,44.1,40.7,28.67,SW,225,0.0,0.0,88,0.00,CLR,CLR,0.00,WeatherDisplay:10.37,2013-01-08 13:16:00,
2013-01-08 07:21:00,43.9,40.6,28.67,SW,225,0.0,0.0,88,0.00,CLR,CLR,0.00,WeatherDisplay:10.37,2013-01-08 13:21:00,
2013-01-08 07:26:00,43.7,40.4,28.67,SW,225,0.0,0.0,88,0.00,CLR,CLR,0.00,WeatherDisplay:10.37,2013-01-08 13:26:00,
2013-01-08 07:31:00,43.3,40.0,28.67,SW,225,0.0,0.0,88,0.00,CLR,CLR,0.00,WeatherDisplay:10.37,2013-01-08 13:31:00,
2013-01-08 07:36:00,43.2,39.8,28.67,SW,225,0.0,0.0,88,0.00,CLR,CLR,0.00,WeatherDisplay:10.37,2013-01-08 13:36:00,
2013-01-08 07:41:00,43.7,40.4,28.67,SW,225,0.0,0.0,88,0.00,CLR,CLR,0.00,WeatherDisplay:10.37,2013-01-08 13:41:00,
2013-01-08 07:46:00,43.9,40.6,28.67,SW,225,0.0,0.0,88,0.00,CLR,CLR,0.00,WeatherDisplay:10.37,2013-01-08 13:46:00,
2013-01-08 07:51:00,44.1,40.7,28.67,SW,225,0.0,0.0,88,0.00,CLR,CLR,0.00,WeatherDisplay:10.37,2013-01-08 13:51:00,
2013-01-08 07:56:00,44.1,40.7,28.67,SE,135,0.0,0.0,88,0.00,CLR,CLR,0.00,WeatherDisplay:10.37,2013-01-08 13:56:00,
2013-01-08 08:01:00,43.7,40.4,28.67,SE,135,0.0,0.0,88,0.00,CLR,CLR,0.00,WeatherDisplay:10.37,2013-01-08 14:01:00,
2013-01-08 08:06:00,43.3,40.0,28.67,SE,135,0.0,0.0,88,0.00,CLR,CLR,0.00,WeatherDisplay:10.37,2013-01-08 14:06:00,
2013-01-08 08:11:00,43.2,39.8,28.67,SE,135,0.0,0.0,88,0.00,CLR,CLR,0.00,WeatherDisplay:10.37,2013-01-08 14:11:00,
2013-01-08 08:16:00,42.8,39.2,28.67,SE,135,0.0,0.0,87,0.00,CLR,CLR,0.00,WeatherDisplay:10.37,2013-01-08 14:16:00,
2013-01-08 08:21:00,42.6,39.3,28.67,SE,135,0.0,0.0,88,0.00,CLR,CLR,0.00,WeatherDisplay:10.37,2013-01-08 14:21:00,
2013-01-08 08:26:00,42.6,39.3,28.67,SE,135,0.0,0.0,88,0.00,CLR,CLR,0.00,WeatherDisplay:10.37,2013-01-08 14:26:00,
2013-01-08 08:31:00,42.4,39.1,28.67,SE,135,0.0,0.0,88,0.00,CLR,CLR,0.00,WeatherDisplay:10.37,2013-01-08 14:31:00,
2013-01-08 08:36:00,42.6,39.3,28.67,SE,135,0.0,0.0,88,0.00,CLR,CLR,0.00,WeatherDisplay:10.37,2013-01-08 14:36:00,
2013-01-08 08:41:00,42.8,39.2,28.67,SE,135,0.0,0.0,87,0.00,CLR,CLR,0.00,WeatherDisplay:10.37,2013-01-08 14:41:00,
2013-01-08 08:46:00,43.2,39.6,28.67,SE,135,0.0,0.0,87,0.00,CLR,CLR,0.00,WeatherDisplay:10.37,2013-01-08 14:46:00,
2013-01-08 08:52:00,43.3,39.7,28.67,SE,135,0.0,0.0,87,0.00,CLR,CLR,0.00,WeatherDisplay:10.37,2013-01-08 14:52:00,
2013-01-08 08:57:00,43.9,40.3,28.67,SE,135,0.0,0.0,87,0.00,CLR,CLR,0.00,WeatherDisplay:10.37,2013-01-08 14:57:00,
2013-01-08 09:02:00,44.8,41.1,28.67,SE,135,0.0,0.0,87,0.00,CLR,CLR,0.00,WeatherDisplay:10.37,2013-01-08 15:02:00,
2013-01-08 09:07:00,45.7,42.0,28.67,SE,135,0.0,0.0,87,0.00,CLR,CLR,0.00,WeatherDisplay:10.37,2013-01-08 15:07:00,
2013-01-08 09:12:00,46.0,42.4,28.67,SE,135,0.0,0.0,87,0.00,CLR,CLR,0.00,WeatherDisplay:10.37,2013-01-08 15:12:00,
2013-01-08 09:17:00,46.9,43.0,28.67,SE,135,0.0,0.0,86,0.00,CLR,CLR,0.00,WeatherDisplay:10.37,2013-01-08 15:17:00,
2013-01-08 09:22:00,47.5,43.5,28.67,SE,135,0.0,0.0,86,0.00,CLR,CLR,0.00,WeatherDisplay:10.37,2013-01-08 15:22:00,
2013-01-08 09:27:00,48.0,43.7,28.67,SE,135,0.0,0.0,85,0.00,CLR,CLR,0.00,WeatherDisplay:10.37,2013-01-08 15:27:00,
2013-01-08 09:32:00,48.4,43.8,28.67,SE,135,0.0,0.0,84,0.00,CLR,CLR,0.00,WeatherDisplay:10.37,2013-01-08 15:32:00,
2013-01-08 09:37:00,49.1,44.2,28.67,SE,135,0.0,0.0,83,0.00,CLR,CLR,0.00,WeatherDisplay:10.37,2013-01-08 15:37:00,
2013-01-08 09:42:00,49.8,44.9,28.67,SE,135,0.0,0.0,83,0.00,CLR,CLR,0.00,WeatherDisplay:10.37,2013-01-08 15:42:00,
2013-01-08 09:47:00,48.9,43.7,28.67,SSW,202,0.0,0.0,82,0.00,CLR,CLR,0.00,WeatherDisplay:10.37,2013-01-08 15:47:00,
2013-01-08 09:52:00,46.4,40.9,28.67,SSW,202,0.0,0.0,81,0.00,CLR,CLR,0.00,WeatherDisplay:10.37,2013-01-08 15:52:00,
2013-01-08 09:57:00,43.3,37.9,28.67,SSW,202,0.0,0.0,81,0.00,CLR,CLR,0.00,WeatherDisplay:10.37,2013-01-08 15:57:00,
2013-01-08 10:02:00,38.8,32.6,28.67,SSW,202,0.0,0.0,78,0.00,CLR,CLR,0.00,WeatherDisplay:10.37,2013-01-08 16:02:00,
2013-01-08 10:07:00,35.8,29.0,28.67,SSW,202,0.0,0.0,76,0.00,CLR,CLR,0.00,WeatherDisplay:10.37,2013-01-08 16:07:00,
2013-01-08 10:12:00,34.7,26.9,28.67,SSW,202,0.0,0.0,73,0.00,CLR,CLR,0.00,WeatherDisplay:10.37,2013-01-08 16:12:00,
2013-01-08 10:17:00,34.7,26.3,28.67,SSW,202,0.0,0.0,71,0.00,CLR,CLR,0.00,WeatherDisplay:10.37,2013-01-08 16:17:00,
2013-01-08 10:22:00,34.3,24.5,28.67,SSW,202,0.0,0.0,67,0.00,CLR,CLR,0.00,WeatherDisplay:10.37,2013-01-08 16:22:00,
2013-01-08 10:27:00,34.5,23.6,28.67,SSW,202,0.0,0.0,64,0.00,CLR,CLR,0.00,WeatherDisplay:10.37,2013-01-08 16:27:00,
2013-01-08 10:32:00,34.5,22.4,28.67,South,180,0.0,0.0,61,0.00,CLR,CLR,0.00,WeatherDisplay:10.37,2013-01-08 16:32:00,
2013-01-08 10:37:00,34.9,22.0,28.67,SSW,202,0.0,0.0,59,0.00,CLR,CLR,0.00,WeatherDisplay:10.37,2013-01-08 16:37:00,
2013-01-08 10:42:00,35.4,22.1,28.67,SSW,202,0.0,0.0,58,0.00,CLR,CLR,0.00,WeatherDisplay:10.37,2013-01-08 16:42:00,
2013-01-08 10:47:00,35.6,21.4,28.67,SSW,202,4.6,0.0,56,0.00,CLR,CLR,0.00,WeatherDisplay:10.37,2013-01-08 16:47:00,
2013-01-08 10:52:00,36.0,21.3,28.67,SSW,202,0.0,0.0,55,0.00,CLR,CLR,0.00,WeatherDisplay:10.37,2013-01-08 16:52:00,
2013-01-08 10:57:00,36.1,21.1,28.67,South,180,3.6,3.6,54,0.00,CLR,CLR,0.00,WeatherDisplay:10.37,2013-01-08 16:57:00,
2013-01-08 11:02:00,36.5,21.4,28.67,SW,225,4.6,0.0,54,0.00,CLR,CLR,0.00,WeatherDisplay:10.37,2013-01-08 17:02:00,
2013-01-08 11:07:00,37.0,21.5,28.67,SW,225,4.9,0.0,53,0.00,CLR,CLR,0.00,WeatherDisplay:10.37,2013-01-08 17:07:00,
2013-01-08 11:12:00,37.0,21.0,28.67,SW,225,4.0,0.0,52,0.00,CLR,CLR,0.00,WeatherDisplay:10.37,2013-01-08 17:12:00,
2013-01-08 11:17:00,37.8,21.7,28.67,SW,225,5.8,5.8,52,0.00,CLR,CLR,0.00,WeatherDisplay:10.37,2013-01-08 17:17:00,
2013-01-08 11:22:00,38.5,21.9,28.67,South,180,5.9,5.9,51,0.00,CLR,CLR,0.00,WeatherDisplay:10.37,2013-01-08 17:22:00,
2013-01-08 11:27:00,39.2,21.6,28.67,SSW,202,8.1,8.1,49,0.00,CLR,CLR,0.00,WeatherDisplay:10.37,2013-01-08 17:27:00,
2013-01-08 11:32:00,39.4,21.3,28.64,SSW,202,12.7,12.7,48,0.00,CLR,CLR,0.00,WeatherDisplay:10.37,2013-01-08 17:32:00,
2013-01-08 11:37:00,39.2,21.1,28.64,SSW,202,12.7,12.7,48,0.00,CLR,CLR,0.00,WeatherDisplay:10.37,2013-01-08 17:37:00,
2013-01-08 11:42:00,39.2,21.1,28.64,South,180,9.2,9.2,48,0.00,CLR,CLR,0.00,WeatherDisplay:10.37,2013-01-08 17:42:00,
2013-01-08 11:47:00,39.6,21.5,28.64,South,180,9.7,9.7,48,0.00,CLR,CLR,0.00,WeatherDisplay:10.37,2013-01-08 17:47:00,
2013-01-08 11:52:00,39.9,21.3,28.64,SSW,202,9.7,9.7,47,0.00,CLR,CLR,0.00,WeatherDisplay:10.37,2013-01-08 17:52:00,
2013-01-08 11:57:00,39.7,21.1,28.64,SSW,202,9.7,9.7,47,0.00,CLR,CLR,0.00,WeatherDisplay:10.37,2013-01-08 17:57:00,
2013-01-08 12:02:00,40.1,21.5,28.64,South,180,17.5,17.5,47,0.00,CLR,CLR,0.00,WeatherDisplay:10.37,2013-01-08 18:02:00,
2013-01-08 12:07:00,40.3,21.6,28.64,South,180,7.1,7.1,47,0.00,CLR,CLR,0.00,WeatherDisplay:10.37,2013-01-08 18:07:00,
2013-01-08 12:12:00,40.6,21.4,28.64,South,180,4.6,4.6,46,0.00,CLR,CLR,0.00,WeatherDisplay:10.37,2013-01-08 18:12:00,
2013-01-08 12:17:00,40.6,21.4,28.64,South,180,4.6,4.6,46,0.00,CLR,CLR,0.00,WeatherDisplay:10.37,2013-01-08 18:17:00,
2013-01-08 12:22:00,40.6,20.9,28.64,SSW,202,10.4,10.4,45,0.00,CLR,CLR,0.00,WeatherDisplay:10.37,2013-01-08 18:22:00,
2013-01-08 12:27:00,40.6,20.9,28.64,South,180,6.2,6.2,45,0.00,CLR,CLR,0.00,WeatherDisplay:10.37,2013-01-08 18:27:00,
2013-01-08 12:32:00,40.6,20.4,28.64,SSW,202,9.2,9.2,44,0.00,CLR,CLR,0.00,WeatherDisplay:10.37,2013-01-08 18:32:00,
2013-01-08 12:37:00,39.9,19.7,28.64,South,180,12.8,12.8,44,0.00,CLR,CLR,0.00,WeatherDisplay:10.37,2013-01-08 18:37:00,
2013-01-08 12:42:00,40.5,20.8,28.64,South,180,8.1,0.0,45,0.00,CLR,CLR,0.00,WeatherDisplay:10.37,2013-01-08 18:42:00,
2013-01-08 12:47:00,40.3,20.6,28.64,SSW,202,5.8,5.8,45,0.00,CLR,CLR,0.00,WeatherDisplay:10.37,2013-01-08 18:47:00,
2013-01-08 12:52:00,40.5,21.3,28.64,SW,225,10.9,10.9,46,0.00,CLR,CLR,0.00,WeatherDisplay:10.37,2013-01-08 18:52:00,
2013-01-08 12:57:00,40.1,21.0,28.64,SSW,202,15.0,15.0,46,0.00,CLR,CLR,0.00,WeatherDisplay:10.37,2013-01-08 18:57:00,
2013-01-08 13:03:00,39.7,21.1,28.64,South,180,10.4,10.4,47,0.00,CLR,CLR,0.00,WeatherDisplay:10.37,2013-01-08 19:03:00,
2013-01-08 13:08:00,40.1,21.0,28.64,SSW,202,11.5,11.5,46,0.00,CLR,CLR,0.00,WeatherDisplay:10.37,2013-01-08 19:08:00,
2013-01-08 13:13:00,39.9,20.8,28.64,South,180,11.5,11.5,46,0.00,CLR,CLR,0.00,WeatherDisplay:10.37,2013-01-08 19:13:00,
2013-01-08 13:18:00,39.9,21.3,28.64,South,180,12.8,12.8,47,0.00,CLR,CLR,0.00,WeatherDisplay:10.37,2013-01-08 19:18:00,
2013-01-08 13:23:00,39.9,21.3,28.64,SSW,202,10.5,10.5,47,0.00,CLR,CLR,0.00,WeatherDisplay:10.37,2013-01-08 19:23:00,
2013-01-08 13:28:00,40.3,21.6,28.64,SSW,202,9.2,9.2,47,0.00,CLR,CLR,0.00,WeatherDisplay:10.37,2013-01-08 19:28:00,
2013-01-08 13:33:00,39.7,21.6,28.64,SSW,202,19.2,19.2,48,0.00,CLR,CLR,0.00,WeatherDisplay:10.37,2013-01-08 19:33:00,
2013-01-08 13:38:00,39.9,21.8,28.64,SW,225,11.5,11.5,48,0.00,CLR,CLR,0.00,WeatherDisplay:10.37,2013-01-08 19:38:00,
2013-01-08 13:43:00,39.9,21.8,28.64,South,180,8.1,8.1,48,0.00,CLR,CLR,0.00,WeatherDisplay:10.37,2013-01-08 19:43:00,
2013-01-08 13:48:00,39.9,21.8,28.64,South,180,6.2,6.2,48,0.00,CLR,CLR,0.00,WeatherDisplay:10.37,2013-01-08 19:48:00,
2013-01-08 13:53:00,40.3,22.1,28.64,South,180,8.1,8.1,48,0.00,CLR,CLR,0.00,WeatherDisplay:10.37,2013-01-08 19:53:00,
2013-01-08 13:58:00,40.5,22.3,28.64,SSW,202,3.5,0.0,48,0.00,CLR,CLR,0.00,WeatherDisplay:10.37,2013-01-08 19:58:00,
2013-01-08 14:03:00,39.9,21.8,28.64,South,180,9.2,9.2,48,0.00,CLR,CLR,0.00,WeatherDisplay:10.37,2013-01-08 20:03:00,
2013-01-08 14:08:00,40.1,22.4,28.64,SW,225,9.2,9.2,49,0.00,CLR,CLR,0.00,WeatherDisplay:10.37,2013-01-08 20:08:00,
2013-01-08 14:13:00,39.9,21.8,28.64,SSW,202,10.4,10.4,48,0.00,CLR,CLR,0.00,WeatherDisplay:10.37,2013-01-08 20:13:00,
2013-01-08 14:18:00,40.3,22.1,28.67,SSW,202,10.0,10.0,48,0.00,CLR,CLR,0.00,WeatherDisplay:10.37,2013-01-08 20:18:00,
2013-01-08 14:23:00,40.1,22.0,28.67,SSW,202,5.9,5.9,48,0.00,CLR,CLR,0.00,WeatherDisplay:10.37,2013-01-08 20:23:00,
2013-01-08 14:28:00,39.9,21.8,28.67,SSW,202,9.2,9.2,48,0.00,CLR,CLR,0.00,WeatherDisplay:10.37,2013-01-08 20:28:00,
2013-01-08 14:33:00,40.1,22.0,28.67,SSW,202,9.2,9.2,48,0.00,CLR,CLR,0.00,WeatherDisplay:10.37,2013-01-08 20:33:00,
2013-01-08 14:38:00,39.9,21.3,28.67,SSW,202,8.1,8.1,47,0.00,CLR,CLR,0.00,WeatherDisplay:10.37,2013-01-08 20:38:00,
2013-01-08 14:43:00,39.7,20.6,28.67,SSW,202,11.5,11.5,46,0.00,CLR,CLR,0.00,WeatherDisplay:10.37,2013-01-08 20:43:00,
2013-01-08 14:48:00,39.7,20.6,28.67,South,180,9.7,9.7,46,0.00,CLR,CLR,0.00,WeatherDisplay:10.37,2013-01-08 20:48:00,
2013-01-08 14:53:00,39.7,20.6,28.67,South,180,8.1,8.1,46,0.00,CLR,CLR,0.00,WeatherDisplay:10.37,2013-01-08 20:53:00,
2013-01-08 14:58:00,39.7,21.1,28.67,SSW,202,5.8,0.0,47,0.00,CLR,CLR,0.00,WeatherDisplay:10.37,2013-01-08 20:58:00,
2013-01-08 15:03:00,39.7,21.1,28.67,SSW,202,5.9,5.9,47,0.00,CLR,CLR,0.00,WeatherDisplay:10.37,2013-01-08 21:03:00,
2013-01-08 15:08:00,39.9,21.3,28.67,SSW,202,2.6,0.0,47,0.00,CLR,CLR,0.00,WeatherDisplay:10.37,2013-01-08 21:08:00,
2013-01-08 15:13:00,40.3,22.1,28.67,SSW,202,7.1,7.1,48,0.00,CLR,CLR,0.00,WeatherDisplay:10.37,2013-01-08 21:13:00,
2013-01-08 15:18:00,40.3,21.1,28.67,South,180,4.6,4.6,46,0.00,CLR,CLR,0.00,WeatherDisplay:10.37,2013-01-08 21:18:00,
2013-01-08 15:23:00,40.3,21.6,28.67,SSW,202,9.2,9.2,47,0.00,CLR,CLR,0.00,WeatherDisplay:10.37,2013-01-08 21:23:00,
2013-01-08 15:28:00,40.3,21.6,28.67,SW,225,8.1,8.1,47,0.00,CLR,CLR,0.00,WeatherDisplay:10.37,2013-01-08 21:28:00,
2013-01-08 15:33:00,40.1,20.4,28.70,SSW,202,13.8,13.8,45,0.00,CLR,CLR,0.00,WeatherDisplay:10.37,2013-01-08 21:33:00,
2013-01-08 15:38:00,39.6,20.5,28.70,SSW,202,8.1,8.1,46,0.00,CLR,CLR,0.00,WeatherDisplay:10.37,2013-01-08 21:38:00,
2013-01-08 15:43:00,39.9,20.8,28.70,SSE,158,8.1,8.1,46,0.00,CLR,CLR,0.00,WeatherDisplay:10.37,2013-01-08 21:43:00,
2013-01-08 15:48:00,39.9,20.8,28.70,South,180,8.1,8.1,46,0.00,CLR,CLR,0.00,WeatherDisplay:10.37,2013-01-08 21:48:00,
2013-01-08 15:53:00,39.4,20.8,28.70,SSW,202,7.1,7.1,47,0.00,CLR,CLR,0.00,WeatherDisplay:10.37,2013-01-08 21:53:00,
2013-01-08 15:58:00,39.4,21.3,28.70,South,180,4.6,4.6,48,0.00,CLR,CLR,0.00,WeatherDisplay:10.37,2013-01-08 21:58:00,
2013-01-08 16:03:00,39.7,22.1,28.73,SW,225,3.5,0.0,49,0.00,CLR,CLR,0.00,WeatherDisplay:10.37,2013-01-08 22:03:00,
2013-01-08 16:08:00,39.9,21.8,28.73,South,180,3.5,0.0,48,0.00,CLR,CLR,0.00,WeatherDisplay:10.37,2013-01-08 22:08:00,
2013-01-08 16:13:00,39.7,21.6,28.73,SSW,202,3.1,0.0,48,0.00,CLR,CLR,0.00,WeatherDisplay:10.37,2013-01-08 22:13:00,
2013-01-08 16:18:00,39.2,21.1,28.73,South,180,6.2,0.0,48,0.00,CLR,CLR,0.00,WeatherDisplay:10.37,2013-01-08 22:18:00,
2013-01-08 16:23:00,38.8,21.3,28.73,SSW,202,3.5,0.0,49,0.00,CLR,CLR,0.00,WeatherDisplay:10.37,2013-01-08 22:23:00,
2013-01-08 16:28:00,38.7,21.1,28.73,SSW,202,0.0,0.0,49,0.00,CLR,CLR,0.00,WeatherDisplay:10.37,2013-01-08 22:28:00,
2013-01-08 16:33:00,38.7,21.1,28.73,SSW,202,4.6,0.0,49,0.00,CLR,CLR,0.00,WeatherDisplay:10.37,2013-01-08 22:33:00,
2013-01-08 16:38:00,38.5,21.0,28.73,SSW,202,2.3,0.0,49,0.00,CLR,CLR,0.00,WeatherDisplay:10.37,2013-01-08 22:38:00,
2013-01-08 16:43:00,38.3,20.8,28.73,SSW,202,2.6,0.0,49,0.00,CLR,CLR,0.00,WeatherDisplay:10.37,2013-01-08 22:43:00,
2013-01-08 16:48:00,38.1,20.6,28.73,SSW,202,2.3,0.0,49,0.00,CLR,CLR,0.00,WeatherDisplay:10.37,2013-01-08 22:48:00,
2013-01-08 16:53:00,37.9,20.5,28.73,SSW,202,0.0,0.0,49,0.00,CLR,CLR,0.00,WeatherDisplay:10.37,2013-01-08 22:53:00,
2013-01-08 16:58:00,37.8,20.8,28.73,SSW,202,0.0,0.0,50,0.00,CLR,CLR,0.00,WeatherDisplay:10.37,2013-01-08 22:58:00,
2013-01-08 17:03:00,37.6,20.6,28.73,SSW,202,0.0,0.0,50,0.00,CLR,CLR,0.00,WeatherDisplay:10.37,2013-01-08 23:03:00,
2013-01-08 17:08:00,37.4,20.9,28.73,SSW,202,0.0,0.0,51,0.00,CLR,CLR,0.00,WeatherDisplay:10.37,2013-01-08 23:08:00,
2013-01-08 17:13:00,37.4,20.9,28.73,SSW,202,0.0,0.0,51,0.00,CLR,CLR,0.00,WeatherDisplay:10.37,2013-01-08 23:13:00,
2013-01-08 17:18:00,37.4,21.4,28.73,SSW,202,0.0,0.0,52,0.00,CLR,CLR,0.00,WeatherDisplay:10.37,2013-01-08 23:18:00,
2013-01-08 17:23:00,37.2,21.6,28.73,SSW,202,0.0,0.0,53,0.00,CLR,CLR,0.00,WeatherDisplay:10.37,2013-01-08 23:23:00,
2013-01-08 17:28:00,37.2,21.6,28.73,SSW,202,0.0,0.0,53,0.00,CLR,CLR,0.00,WeatherDisplay:10.37,2013-01-08 23:28:00,
2013-01-08 17:33:00,37.2,21.6,28.73,SSW,202,0.0,0.0,53,0.00,CLR,CLR,0.00,WeatherDisplay:10.37,2013-01-08 23:33:00,
2013-01-08 17:38:00,37.2,21.6,28.73,SSW,202,0.0,0.0,53,0.00,CLR,CLR,0.00,WeatherDisplay:10.37,2013-01-08 23:38:00,
2013-01-08 17:43:00,37.0,21.5,28.73,SSW,202,2.2,0.0,53,0.00,CLR,CLR,0.00,WeatherDisplay:10.37,2013-01-08 23:43:00,
2013-01-08 17:48:00,37.0,21.9,28.76,SSW,202,2.2,0.0,54,0.00,CLR,CLR,0.00,WeatherDisplay:10.37,2013-01-08 23:48:00,
2013-01-08 17:53:00,37.0,21.9,28.76,SSW,202,2.6,0.0,54,0.00,CLR,CLR,0.00,WeatherDisplay:10.37,2013-01-08 23:53:00,
2013-01-08 17:58:00,37.0,22.4,28.76,SSW,202,0.0,0.0,55,0.00,CLR,CLR,0.00,WeatherDisplay:10.37,2013-01-08 23:58:00,
2013-01-08 18:03:00,37.0,22.4,28.76,South,180,0.0,0.0,55,0.00,CLR,CLR,0.00,WeatherDisplay:10.37,2013-01-09 00:03:00,
2013-01-08 18:08:00,37.0,22.4,28.76,SSW,202,0.0,0.0,55,0.00,CLR,CLR,0.00,WeatherDisplay:10.37,2013-01-09 00:08:00,
2013-01-08 18:13:00,37.0,22.8,28.76,SSW,202,0.0,0.0,56,0.00,CLR,CLR,0.00,WeatherDisplay:10.37,2013-01-09 00:13:00,
2013-01-08 18:18:00,37.0,22.8,28.79,SSW,202,2.6,0.0,56,0.00,CLR,CLR,0.00,WeatherDisplay:10.37,2013-01-09 00:18:00,
2013-01-08 18:23:00,37.0,22.8,28.79,South,180,0.0,0.0,56,0.00,CLR,CLR,0.00,WeatherDisplay:10.37,2013-01-09 00:23:00,
2013-01-08 18:28:00,37.0,22.8,28.79,SSW,202,0.0,0.0,56,0.00,CLR,CLR,0.00,WeatherDisplay:10.37,2013-01-09 00:28:00,
2013-01-08 18:33:00,37.0,23.2,28.79,South,180,0.0,0.0,57,0.00,CLR,CLR,0.00,WeatherDisplay:10.37,2013-01-09 00:33:00,
2013-01-08 18:38:00,37.0,23.2,28.79,South,180,0.0,0.0,57,0.00,CLR,CLR,0.00,WeatherDisplay:10.37,2013-01-09 00:38:00,
2013-01-08 18:43:00,37.0,23.6,28.79,South,180,0.0,0.0,58,0.00,CLR,CLR,0.00,WeatherDisplay:10.37,2013-01-09 00:43:00,
2013-01-08 18:48:00,37.0,23.6,28.79,South,180,0.0,0.0,58,0.00,CLR,CLR,0.00,WeatherDisplay:10.37,2013-01-09 00:48:00,
2013-01-08 18:53:00,37.0,23.6,28.79,South,180,0.0,0.0,58,0.00,CLR,CLR,0.00,WeatherDisplay:10.37,2013-01-09 00:53:00,
2013-01-08 18:58:00,37.0,23.6,28.79,South,180,0.0,0.0,58,0.00,CLR,CLR,0.00,WeatherDisplay:10.37,2013-01-09 00:58:00,
2013-01-08 19:03:00,37.0,23.6,28.79,SSW,202,0.0,0.0,58,0.00,CLR,CLR,0.00,WeatherDisplay:10.37,2013-01-09 01:03:00,
2013-01-08 19:08:00,37.0,23.6,28.79,SSW,202,0.0,0.0,58,0.00,CLR,CLR,0.00,WeatherDisplay:10.37,2013-01-09 01:08:00,
2013-01-08 19:13:00,37.0,23.6,28.79,SSW,202,0.0,0.0,58,0.00,CLR,CLR,0.00,WeatherDisplay:10.37,2013-01-09 01:13:00,
2013-01-08 19:18:00,37.0,24.0,28.82,SSW,202,0.0,0.0,59,0.00,CLR,CLR,0.00,WeatherDisplay:10.37,2013-01-09 01:18:00,
2013-01-08 19:23:00,36.9,23.9,28.82,SSW,202,0.0,0.0,59,0.00,CLR,CLR,0.00,WeatherDisplay:10.37,2013-01-09 01:23:00,
2013-01-08 19:28:00,36.9,23.9,28.82,South,180,0.0,0.0,59,0.00,CLR,CLR,0.00,WeatherDisplay:10.37,2013-01-09 01:28:00,
2013-01-08 19:33:00,36.9,24.3,28.82,SSW,202,0.0,0.0,60,0.00,CLR,CLR,0.00,WeatherDisplay:10.37,2013-01-09 01:33:00,
2013-01-08 19:38:00,36.9,24.3,28.82,SSW,202,2.6,0.0,60,0.00,CLR,CLR,0.00,WeatherDisplay:10.37,2013-01-09 01:38:00,
2013-01-08 19:44:00,36.9,24.7,28.82,South,180,0.0,0.0,61,0.00,CLR,CLR,0.00,WeatherDisplay:10.37,2013-01-09 01:44:00,
2013-01-08 19:49:00,36.9,24.7,28.85,SSW,202,0.0,0.0,61,0.00,CLR,CLR,0.00,WeatherDisplay:10.37,2013-01-09 01:49:00,
2013-01-08 19:54:00,36.9,24.7,28.85,SSW,202,0.0,0.0,61,0.00,CLR,CLR,0.00,WeatherDisplay:10.37,2013-01-09 01:54:00,
2013-01-08 19:59:00,36.9,24.7,28.82,South,180,0.0,0.0,61,0.00,CLR,CLR,0.00,WeatherDisplay:10.37,2013-01-09 01:59:00,
2013-01-08 20:04:00,36.7,24.9,28.82,SSW,202,0.0,0.0,62,0.00,CLR,CLR,0.00,WeatherDisplay:10.37,2013-01-09 02:04:00,
2013-01-08 20:10:00,36.9,25.0,28.82,SSW,202,0.0,0.0,62,0.00,CLR,CLR,0.00,WeatherDisplay:10.37,2013-01-09 02:10:00,
2013-01-08 20:15:00,36.9,25.4,28.85,South,180,0.0,0.0,63,0.00,CLR,CLR,0.00,WeatherDisplay:10.37,2013-01-09 02:15:00,
2013-01-08 20:20:00,36.9,25.4,28.85,South,180,0.0,0.0,63,0.00,CLR,CLR,0.00,WeatherDisplay:10.37,2013-01-09 02:20:00,
2013-01-08 20:25:00,36.9,25.4,28.85,SSW,202,0.0,0.0,63,0.00,CLR,CLR,0.00,WeatherDisplay:10.37,2013-01-09 02:25:00,
2013-01-08 20:30:00,36.9,25.4,28.85,SSW,202,0.0,0.0,63,0.00,CLR,CLR,0.00,WeatherDisplay:10.37,2013-01-09 02:30:00,
2013-01-08 20:35:00,36.9,25.4,28.85,SSW,202,0.0,0.0,63,0.00,CLR,CLR,0.00,WeatherDisplay:10.37,2013-01-09 02:35:00,
2013-01-08 20:40:00,36.9,25.4,28.85,South,180,0.0,0.0,63,0.00,CLR,CLR,0.00,WeatherDisplay:10.37,2013-01-09 02:40:00,
2013-01-08 20:45:00,36.9,25.8,28.85,SSW,202,0.0,0.0,64,0.00,CLR,CLR,0.00,WeatherDisplay:10.37,2013-01-09 02:45:00,
2013-01-08 20:50:00,36.9,25.8,28.85,SSW,202,0.0,0.0,64,0.00,CLR,CLR,0.00,WeatherDisplay:10.37,2013-01-09 02:50:00,
2013-01-08 20:55:00,36.9,26.2,28.85,South,180,0.0,0.0,65,0.00,CLR,CLR,0.00,WeatherDisplay:10.37,2013-01-09 02:55:00,
2013-01-08 21:00:00,36.9,26.2,28.88,SSW,202,0.0,0.0,65,0.00,CLR,CLR,0.00,WeatherDisplay:10.37,2013-01-09 03:00:00,
2013-01-08 21:05:00,36.9,26.6,28.88,SSW,202,0.0,0.0,66,0.00,CLR,CLR,0.00,WeatherDisplay:10.37,2013-01-09 03:05:00,
2013-01-08 21:10:00,36.9,26.6,28.88,SSW,202,0.0,0.0,66,0.00,CLR,CLR,0.00,WeatherDisplay:10.37,2013-01-09 03:10:00,
2013-01-08 21:15:00,36.9,26.9,28.88,SSW,202,0.0,0.0,67,0.00,CLR,CLR,0.00,WeatherDisplay:10.37,2013-01-09 03:15:00,
2013-01-08 21:20:00,36.9,26.9,28.88,SSW,202,0.0,0.0,67,0.00,CLR,CLR,0.00,WeatherDisplay:10.37,2013-01-09 03:20:00,
2013-01-08 21:25:00,37.0,27.5,28.88,SSW,202,0.0,0.0,68,0.00,CLR,CLR,0.00,WeatherDisplay:10.37,2013-01-09 03:25:00,
2013-01-08 21:30:00,37.0,27.5,28.88,SSW,202,0.0,0.0,68,0.00,CLR,CLR,0.00,WeatherDisplay:10.37,2013-01-09 03:30:00,
2013-01-08 21:35:00,36.9,27.6,28.88,SSW,202,0.0,0.0,69,0.00,CLR,CLR,0.00,WeatherDisplay:10.37,2013-01-09 03:35:00,
2013-01-08 21:40:00,36.9,27.6,28.88,SSW,202,0.0,0.0,69,0.00,CLR,CLR,0.00,WeatherDisplay:10.37,2013-01-09 03:40:00,
2013-01-08 21:45:00,37.0,28.2,28.88,SSW,202,0.0,0.0,70,0.00,CLR,CLR,0.00,WeatherDisplay:10.37,2013-01-09 03:45:00,
2013-01-08 21:51:00,37.2,28.3,28.88,SSW,202,0.0,0.0,70,0.00,CLR,CLR,0.00,WeatherDisplay:10.37,2013-01-09 03:51:00,
2013-01-08 21:56:00,37.6,28.7,28.88,South,180,0.0,0.0,70,0.00,CLR,CLR,0.00,WeatherDisplay:10.37,2013-01-09 03:56:00,
2013-01-08 22:01:00,37.6,28.7,28.88,SW,225,0.0,0.0,70,0.00,CLR,CLR,0.00,WeatherDisplay:10.37,2013-01-09 04:01:00,
2013-01-08 22:06:00,37.4,28.5,28.88,SSW,202,3.6,0.0,70,0.00,CLR,CLR,0.00,WeatherDisplay:10.37,2013-01-09 04:06:00,
2013-01-08 22:11:00,37.2,28.0,28.88,SSW,202,0.0,0.0,69,0.00,CLR,CLR,0.00,WeatherDisplay:10.37,2013-01-09 04:11:00,
2013-01-08 22:16:00,37.0,27.8,28.88,SSW,202,0.0,0.0,69,0.00,CLR,CLR,0.00,WeatherDisplay:10.37,2013-01-09 04:16:00,
2013-01-08 22:21:00,37.0,27.8,28.88,SSW,202,0.0,0.0,69,0.00,CLR,CLR,0.00,WeatherDisplay:10.37,2013-01-09 04:21:00,
2013-01-08 22:26:00,36.9,27.6,28.88,SSW,202,0.0,0.0,69,0.00,CLR,CLR,0.00,WeatherDisplay:10.37,2013-01-09 04:26:00,
2013-01-08 22:31:00,36.7,27.5,28.91,South,180,0.0,0.0,69,0.00,CLR,CLR,0.00,WeatherDisplay:10.37,2013-01-09 04:31:00,
2013-01-08 22:36:00,36.5,27.3,28.91,South,180,0.0,0.0,69,0.00,CLR,CLR,0.00,WeatherDisplay:10.37,2013-01-09 04:36:00,
2013-01-08 22:41:00,36.3,27.5,28.91,South,180,0.0,0.0,70,0.00,CLR,CLR,0.00,WeatherDisplay:10.37,2013-01-09 04:41:00,
2013-01-08 22:46:00,36.3,27.5,28.91,South,180,0.0,0.0,70,0.00,CLR,CLR,0.00,WeatherDisplay:10.37,2013-01-09 04:46:00,
2013-01-08 22:51:00,36.7,28.2,28.91,South,180,0.0,0.0,71,0.00,CLR,CLR,0.00,WeatherDisplay:10.37,2013-01-09 04:51:00,
2013-01-08 22:56:00,36.9,28.3,28.91,SSW,202,0.0,0.0,71,0.00,CLR,CLR,0.00,WeatherDisplay:10.37,2013-01-09 04:56:00,
2013-01-08 23:00:00,36.7,27.8,28.91,SSW,202,0.0,0.0,70,0.00,CLR,CLR,0.00,WeatherDisplay:10.37,2013-01-09 05:00:00,
2013-01-08 23:01:00,36.7,27.8,28.91,SSW,202,0.0,0.0,70,0.00,CLR,CLR,0.00,WeatherDisplay:10.37,2013-01-09 05:01:00,
2013-01-08 23:02:00,36.7,27.8,28.91,SSW,202,0.0,0.0,70,0.00,CLR,CLR,0.00,WeatherDisplay:10.37,2013-01-09 05:02:00,
2013-01-08 23:03:00,36.7,27.8,28.91,SSW,202,0.0,0.0,70,0.00,CLR,CLR,0.00,WeatherDisplay:10.37,2013-01-09 05:03:00,
2013-01-08 23:08:00,36.3,27.5,28.91,South,180,0.0,0.0,70,0.00,CLR,CLR,0.00,WeatherDisplay:10.37,2013-01-09 05:08:00,
2013-01-08 23:13:00,36.1,27.3,28.91,South,180,0.0,0.0,70,0.00,CLR,CLR,0.00,WeatherDisplay:10.37,2013-01-09 05:13:00,
2013-01-08 23:18:00,35.8,27.3,28.91,South,180,0.0,0.0,71,0.00,CLR,CLR,0.00,WeatherDisplay:10.37,2013-01-09 05:18:00,
2013-01-08 23:23:00,35.8,27.6,28.91,South,180,0.0,0.0,72,0.00,CLR,CLR,0.00,WeatherDisplay:10.37,2013-01-09 05:23:00,
2013-01-08 23:28:00,36.1,28.0,28.91,South,180,0.0,0.0,72,0.00,CLR,CLR,0.00,WeatherDisplay:10.37,2013-01-09 05:28:00,
2013-01-08 23:33:00,36.3,28.5,28.91,South,180,0.0,0.0,73,0.00,CLR,CLR,0.00,WeatherDisplay:10.37,2013-01-09 05:33:00,
2013-01-08 23:38:00,36.9,29.3,28.91,SSW,202,0.0,0.0,74,0.00,CLR,CLR,0.00,WeatherDisplay:10.37,2013-01-09 05:38:00,
2013-01-08 23:43:00,37.2,29.7,28.91,SSW,202,0.0,0.0,74,0.00,CLR,CLR,0.00,WeatherDisplay:10.37,2013-01-09 05:43:00,
2013-01-08 23:48:00,37.4,29.9,28.91,SSW,202,0.0,0.0,74,0.00,CLR,CLR,0.00,WeatherDisplay:10.37,2013-01-09 05:48:00,
2013-01-08 23:53:00,37.6,30.4,28.91,SSW,202,0.0,0.0,75,0.00,CLR,CLR,0.00,WeatherDisplay:10.37,2013-01-09 05:53:00,
2013-01-08 23:59:00,38.1,30.9,28.91,SSW,202,0.0,0.0,75,0.00,CLR,CLR,0.00,WeatherDisplay:10.37,2013-01-09 05:59:00,